sensor_id;sensor_type;location;lat;lon;timestamp;temperature;humidity
57264;DHT22;43113;53.124;6.092;2022-12-18T00:02:23;-3.70;99.90
57264;DHT22;43113;53.124;6.092;2022-12-18T00:04:49;-0.60;99.90
57264;DHT22;43113;53.124;6.092;2022-12-18T00:07:14;-3.10;99.90
57264;DHT22;43113;53.124;6.092;2022-12-18T00:09:40;-3.70;99.90
57264;DHT22;43113;53.124;6.092;2022-12-18T00:12:07;-2.10;99.90
57264;DHT22;43113;53.124;6.092;2022-12-18T00:14:32;-3.70;99.90
57264;DHT22;43113;53.124;6.092;2022-12-18T00:16:58;-3.70;99.90
57264;DHT22;43113;53.124;6.092;2022-12-18T00:21:52;-3.70;99.90
57264;DHT22;43113;53.124;6.092;2022-12-18T00:24:17;-3.80;99.90
57264;DHT22;43113;53.124;6.092;2022-12-18T00:26:44;-3.80;99.90
57264;DHT22;43113;53.124;6.092;2022-12-18T00:29:12;-3.90;99.90
57264;DHT22;43113;53.124;6.092;2022-12-18T00:31:40;-3.90;99.90
57264;DHT22;43113;53.124;6.092;2022-12-18T00:34:06;-3.90;99.90
57264;DHT22;43113;53.124;6.092;2022-12-18T00:36:33;-4.00;99.90
57264;DHT22;43113;53.124;6.092;2022-12-18T00:39:02;-3.90;99.90
57264;DHT22;43113;53.124;6.092;2022-12-18T00:41:28;-3.90;99.90
57264;DHT22;43113;53.124;6.092;2022-12-18T00:44:14;-3.70;99.90
57264;DHT22;43113;53.124;6.092;2022-12-18T00:46:43;-2.00;99.90
57264;DHT22;43113;53.124;6.092;2022-12-18T00:49:09;-4.00;99.90
57264;DHT22;43113;53.124;6.092;2022-12-18T00:51:35;-3.80;99.90
57264;DHT22;43113;53.124;6.092;2022-12-18T00:54:01;-4.00;99.90
57264;DHT22;43113;53.124;6.092;2022-12-18T00:56:27;-4.00;99.90
57264;DHT22;43113;53.124;6.092;2022-12-18T00:58:52;-3.30;99.90
57264;DHT22;43113;53.124;6.092;2022-12-18T01:01:19;-1.90;99.90
57264;DHT22;43113;53.124;6.092;2022-12-18T01:03:45;-4.30;99.90
57264;DHT22;43113;53.124;6.092;2022-12-18T01:06:13;-4.40;99.90
57264;DHT22;43113;53.124;6.092;2022-12-18T01:08:39;-4.30;99.90
57264;DHT22;43113;53.124;6.092;2022-12-18T01:11:14;-4.20;99.90
57264;DHT22;43113;53.124;6.092;2022-12-18T01:16:07;-4.20;99.90
57264;DHT22;43113;53.124;6.092;2022-12-18T01:21:00;-4.30;99.90
57264;DHT22;43113;53.124;6.092;2022-12-18T01:23:26;-4.30;99.90
57264;DHT22;43113;53.124;6.092;2022-12-18T01:25:51;-4.30;99.90
57264;DHT22;43113;53.124;6.092;2022-12-18T01:28:17;-4.40;99.90
57264;DHT22;43113;53.124;6.092;2022-12-18T01:33:09;-4.40;99.90
57264;DHT22;43113;53.124;6.092;2022-12-18T01:35:41;-4.50;99.90
57264;DHT22;43113;53.124;6.092;2022-12-18T01:38:07;-4.60;99.90
57264;DHT22;43113;53.124;6.092;2022-12-18T01:42:59;-4.50;99.90
57264;DHT22;43113;53.124;6.092;2022-12-18T01:45:27;-4.60;99.90
57264;DHT22;43113;53.124;6.092;2022-12-18T01:48:01;-4.80;99.90
57264;DHT22;43113;53.124;6.092;2022-12-18T01:50:38;-4.60;99.90
57264;DHT22;43113;53.124;6.092;2022-12-18T01:53:12;-4.70;99.90
57264;DHT22;43113;53.124;6.092;2022-12-18T01:55:59;-5.10;99.90
57264;DHT22;43113;53.124;6.092;2022-12-18T02:03:24;-4.90;99.90
57264;DHT22;43113;53.124;6.092;2022-12-18T02:11:17;-4.50;99.90
57264;DHT22;43113;53.124;6.092;2022-12-18T02:13:46;-5.20;99.90
57264;DHT22;43113;53.124;6.092;2022-12-18T02:16:33;-4.10;99.90
57264;DHT22;43113;53.124;6.092;2022-12-18T02:19:15;-3.50;99.90
57264;DHT22;43113;53.124;6.092;2022-12-18T02:22:04;-5.40;99.90
57264;DHT22;43113;53.124;6.092;2022-12-18T02:27:18;-5.20;99.90
57264;DHT22;43113;53.124;6.092;2022-12-18T02:29:48;-5.30;99.90
57264;DHT22;43113;53.124;6.092;2022-12-18T02:32:19;-5.20;99.90
57264;DHT22;43113;53.124;6.092;2022-12-18T02:34:46;-5.30;99.90
57264;DHT22;43113;53.124;6.092;2022-12-18T02:37:16;-5.30;99.90
57264;DHT22;43113;53.124;6.092;2022-12-18T02:39:43;-5.30;99.90
57264;DHT22;43113;53.124;6.092;2022-12-18T02:42:10;-4.10;99.90
57264;DHT22;43113;53.124;6.092;2022-12-18T02:44:47;-5.30;99.90
57264;DHT22;43113;53.124;6.092;2022-12-18T02:47:16;-5.30;99.90
57264;DHT22;43113;53.124;6.092;2022-12-18T02:49:53;-5.20;99.90
57264;DHT22;43113;53.124;6.092;2022-12-18T02:52:39;-5.60;99.90
57264;DHT22;43113;53.124;6.092;2022-12-18T03:00:48;-5.50;99.90
57264;DHT22;43113;53.124;6.092;2022-12-18T03:03:27;-5.50;99.90
57264;DHT22;43113;53.124;6.092;2022-12-18T03:06:08;-5.50;99.90
57264;DHT22;43113;53.124;6.092;2022-12-18T03:08:39;-5.40;99.90
57264;DHT22;43113;53.124;6.092;2022-12-18T03:11:11;-4.20;99.90
57264;DHT22;43113;53.124;6.092;2022-12-18T03:13:50;-5.50;99.90
57264;DHT22;43113;53.124;6.092;2022-12-18T03:16:24;-5.60;99.90
57264;DHT22;43113;53.124;6.092;2022-12-18T03:19:21;-5.50;99.90
57264;DHT22;43113;53.124;6.092;2022-12-18T03:21:54;-5.60;99.90
57264;DHT22;43113;53.124;6.092;2022-12-18T03:24:21;-4.20;99.90
57264;DHT22;43113;53.124;6.092;2022-12-18T03:26:52;-5.70;99.90
57264;DHT22;43113;53.124;6.092;2022-12-18T03:31:58;-5.50;99.90
57264;DHT22;43113;53.124;6.092;2022-12-18T03:34:30;-5.70;99.90
57264;DHT22;43113;53.124;6.092;2022-12-18T03:36:57;-5.80;99.90
57264;DHT22;43113;53.124;6.092;2022-12-18T03:39:23;-5.70;99.90
57264;DHT22;43113;53.124;6.092;2022-12-18T03:52:33;-5.90;99.90
57264;DHT22;43113;53.124;6.092;2022-12-18T03:55:01;-5.90;99.90
57264;DHT22;43113;53.124;6.092;2022-12-18T03:57:30;-6.30;99.90
57264;DHT22;43113;53.124;6.092;2022-12-18T04:00:06;-4.80;99.90
57264;DHT22;43113;53.124;6.092;2022-12-18T04:02:33;-4.00;99.90
57264;DHT22;43113;53.124;6.092;2022-12-18T04:05:03;-6.20;99.90
57264;DHT22;43113;53.124;6.092;2022-12-18T04:07:30;-6.00;99.90
57264;DHT22;43113;53.124;6.092;2022-12-18T04:09:56;-5.90;99.90
57264;DHT22;43113;53.124;6.092;2022-12-18T04:12:25;-6.10;99.90
57264;DHT22;43113;53.124;6.092;2022-12-18T04:17:18;-5.90;99.90
57264;DHT22;43113;53.124;6.092;2022-12-18T04:19:46;-6.00;99.90
57264;DHT22;43113;53.124;6.092;2022-12-18T04:22:12;-6.20;99.90
57264;DHT22;43113;53.124;6.092;2022-12-18T04:24:41;-3.40;99.90
57264;DHT22;43113;53.124;6.092;2022-12-18T04:27:07;-6.20;99.90
57264;DHT22;43113;53.124;6.092;2022-12-18T04:29:33;-6.30;99.90
57264;DHT22;43113;53.124;6.092;2022-12-18T04:31:58;-5.50;99.90
57264;DHT22;43113;53.124;6.092;2022-12-18T04:34:24;-6.00;99.90
57264;DHT22;43113;53.124;6.092;2022-12-18T04:39:19;-6.00;99.90
57264;DHT22;43113;53.124;6.092;2022-12-18T04:41:45;-6.10;99.90
57264;DHT22;43113;53.124;6.092;2022-12-18T04:44:11;-4.90;99.90
57264;DHT22;43113;53.124;6.092;2022-12-18T04:46:36;-5.70;99.90
57264;DHT22;43113;53.124;6.092;2022-12-18T04:49:02;-6.20;99.90
57264;DHT22;43113;53.124;6.092;2022-12-18T04:51:30;-5.90;99.90
57264;DHT22;43113;53.124;6.092;2022-12-18T04:53:56;-6.00;99.90
57264;DHT22;43113;53.124;6.092;2022-12-18T04:56:22;-6.10;99.90
57264;DHT22;43113;53.124;6.092;2022-12-18T04:58:48;-6.10;99.90
57264;DHT22;43113;53.124;6.092;2022-12-18T05:01:15;-6.00;99.90
57264;DHT22;43113;53.124;6.092;2022-12-18T05:03:41;-3.90;99.90
57264;DHT22;43113;53.124;6.092;2022-12-18T05:06:07;-3.70;99.90
57264;DHT22;43113;53.124;6.092;2022-12-18T05:08:33;-6.40;99.90
57264;DHT22;43113;53.124;6.092;2022-12-18T05:11:04;-6.40;99.90
57264;DHT22;43113;53.124;6.092;2022-12-18T05:13:30;-6.10;99.90
57264;DHT22;43113;53.124;6.092;2022-12-18T05:15:56;-6.20;99.90
57264;DHT22;43113;53.124;6.092;2022-12-18T05:18:26;-6.30;99.90
57264;DHT22;43113;53.124;6.092;2022-12-18T05:20:53;-6.30;99.90
57264;DHT22;43113;53.124;6.092;2022-12-18T05:23:19;-4.50;99.90
57264;DHT22;43113;53.124;6.092;2022-12-18T05:25:58;-7.00;99.90
57264;DHT22;43113;53.124;6.092;2022-12-18T05:28:26;-6.30;99.90
57264;DHT22;43113;53.124;6.092;2022-12-18T05:30:55;-6.40;99.90
57264;DHT22;43113;53.124;6.092;2022-12-18T05:33:22;-6.20;99.90
57264;DHT22;43113;53.124;6.092;2022-12-18T05:35:57;-6.40;99.90
57264;DHT22;43113;53.124;6.092;2022-12-18T05:38:25;-6.30;99.90
57264;DHT22;43113;53.124;6.092;2022-12-18T05:40:52;-6.50;99.90
57264;DHT22;43113;53.124;6.092;2022-12-18T05:43:21;-5.20;99.90
57264;DHT22;43113;53.124;6.092;2022-12-18T05:45:47;-5.10;99.90
57264;DHT22;43113;53.124;6.092;2022-12-18T05:48:14;-6.60;99.90
57264;DHT22;43113;53.124;6.092;2022-12-18T05:50:41;-6.50;99.90
57264;DHT22;43113;53.124;6.092;2022-12-18T05:53:08;-6.60;99.90
57264;DHT22;43113;53.124;6.092;2022-12-18T05:55:39;-6.50;99.90
57264;DHT22;43113;53.124;6.092;2022-12-18T05:58:07;-6.50;99.90
57264;DHT22;43113;53.124;6.092;2022-12-18T06:00:37;-6.50;99.90
57264;DHT22;43113;53.124;6.092;2022-12-18T06:03:06;-5.50;99.90
57264;DHT22;43113;53.124;6.092;2022-12-18T06:05:39;-8.30;99.90
57264;DHT22;43113;53.124;6.092;2022-12-18T06:08:05;-5.50;99.90
57264;DHT22;43113;53.124;6.092;2022-12-18T06:13:08;-6.60;99.90
57264;DHT22;43113;53.124;6.092;2022-12-18T06:15:36;-6.30;99.90
57264;DHT22;43113;53.124;6.092;2022-12-18T06:18:02;-6.70;99.90
57264;DHT22;43113;53.124;6.092;2022-12-18T06:22:59;-3.40;99.90
57264;DHT22;43113;53.124;6.092;2022-12-18T06:25:25;-6.70;99.90
57264;DHT22;43113;53.124;6.092;2022-12-18T06:27:51;-6.40;99.90
57264;DHT22;43113;53.124;6.092;2022-12-18T06:30:20;-6.70;99.90
57264;DHT22;43113;53.124;6.092;2022-12-18T06:32:48;-6.60;99.90
57264;DHT22;43113;53.124;6.092;2022-12-18T06:35:14;-4.60;99.90
57264;DHT22;43113;53.124;6.092;2022-12-18T06:37:39;-6.50;99.90
57264;DHT22;43113;53.124;6.092;2022-12-18T06:40:06;-7.80;99.90
57264;DHT22;43113;53.124;6.092;2022-12-18T06:44:58;-6.50;99.90
57264;DHT22;43113;53.124;6.092;2022-12-18T06:47:24;-5.20;99.90
57264;DHT22;43113;53.124;6.092;2022-12-18T06:49:50;-6.60;99.90
57264;DHT22;43113;53.124;6.092;2022-12-18T06:52:15;-6.60;99.90
57264;DHT22;43113;53.124;6.092;2022-12-18T06:54:41;-8.80;99.90
57264;DHT22;43113;53.124;6.092;2022-12-18T06:57:07;-6.60;99.90
57264;DHT22;43113;53.124;6.092;2022-12-18T06:59:33;-7.80;99.90
57264;DHT22;43113;53.124;6.092;2022-12-18T07:01:58;-6.70;99.90
57264;DHT22;43113;53.124;6.092;2022-12-18T07:04:29;-5.50;99.90
57264;DHT22;43113;53.124;6.092;2022-12-18T07:06:55;-6.70;99.90
57264;DHT22;43113;53.124;6.092;2022-12-18T07:11:47;-6.70;99.90
57264;DHT22;43113;53.124;6.092;2022-12-18T07:14:13;-5.30;99.90
57264;DHT22;43113;53.124;6.092;2022-12-18T07:16:38;-6.70;99.90
57264;DHT22;43113;53.124;6.092;2022-12-18T07:19:04;-6.70;99.90
57264;DHT22;43113;53.124;6.092;2022-12-18T07:21:30;-6.60;99.90
57264;DHT22;43113;53.124;6.092;2022-12-18T07:23:56;-6.60;99.90
57264;DHT22;43113;53.124;6.092;2022-12-18T07:26:22;-6.50;99.90
57264;DHT22;43113;53.124;6.092;2022-12-18T07:31:16;-6.40;99.90
57264;DHT22;43113;53.124;6.092;2022-12-18T07:33:46;-4.80;99.90
57264;DHT22;43113;53.124;6.092;2022-12-18T07:36:12;-6.40;99.90
57264;DHT22;43113;53.124;6.092;2022-12-18T07:38:39;-6.00;99.90
57264;DHT22;43113;53.124;6.092;2022-12-18T07:41:11;-6.40;99.90
57264;DHT22;43113;53.124;6.092;2022-12-18T07:43:38;-6.30;99.90
57264;DHT22;43113;53.124;6.092;2022-12-18T07:46:08;-7.10;99.90
57264;DHT22;43113;53.124;6.092;2022-12-18T07:48:34;-6.50;99.90
57264;DHT22;43113;53.124;6.092;2022-12-18T07:51:00;-4.70;99.90
57264;DHT22;43113;53.124;6.092;2022-12-18T07:53:26;-6.30;99.90
57264;DHT22;43113;53.124;6.092;2022-12-18T07:55:59;-6.50;99.90
57264;DHT22;43113;53.124;6.092;2022-12-18T07:58:28;-6.40;99.90
57264;DHT22;43113;53.124;6.092;2022-12-18T08:00:54;-4.70;99.90
57264;DHT22;43113;53.124;6.092;2022-12-18T08:03:29;-4.00;99.90
57264;DHT22;43113;53.124;6.092;2022-12-18T08:05:59;-6.10;99.90
57264;DHT22;43113;53.124;6.092;2022-12-18T08:08:28;-6.10;99.90
57264;DHT22;43113;53.124;6.092;2022-12-18T08:13:21;-5.30;99.90
57264;DHT22;43113;53.124;6.092;2022-12-18T08:15:54;-5.90;99.90
57264;DHT22;43113;53.124;6.092;2022-12-18T08:18:29;-5.70;99.90
57264;DHT22;43113;53.124;6.092;2022-12-18T08:20:55;-5.40;99.90
57264;DHT22;43113;53.124;6.092;2022-12-18T08:23:22;-5.50;99.90
57264;DHT22;43113;53.124;6.092;2022-12-18T08:25:47;-4.60;99.90
57264;DHT22;43113;53.124;6.092;2022-12-18T08:28:13;-5.40;99.90
57264;DHT22;43113;53.124;6.092;2022-12-18T08:30:39;-5.30;99.90
57264;DHT22;43113;53.124;6.092;2022-12-18T08:33:05;-5.20;99.90
57264;DHT22;43113;53.124;6.092;2022-12-18T08:35:35;-5.10;99.90
57264;DHT22;43113;53.124;6.092;2022-12-18T08:38:01;-5.10;99.90
57264;DHT22;43113;53.124;6.092;2022-12-18T08:40:27;-5.10;99.90
57264;DHT22;43113;53.124;6.092;2022-12-18T08:42:53;-3.70;99.90
57264;DHT22;43113;53.124;6.092;2022-12-18T08:45:37;-3.40;99.90
57264;DHT22;43113;53.124;6.092;2022-12-18T08:48:03;-4.90;99.90
57264;DHT22;43113;53.124;6.092;2022-12-18T08:50:28;-4.80;99.90
57264;DHT22;43113;53.124;6.092;2022-12-18T08:52:54;-4.70;99.90
57264;DHT22;43113;53.124;6.092;2022-12-18T08:55:20;-4.60;99.90
57264;DHT22;43113;53.124;6.092;2022-12-18T08:57:48;-4.40;99.90
57264;DHT22;43113;53.124;6.092;2022-12-18T09:00:15;-4.20;99.90
57264;DHT22;43113;53.124;6.092;2022-12-18T09:02:41;-4.00;99.90
57264;DHT22;43113;53.124;6.092;2022-12-18T09:07:33;-3.60;99.90
57264;DHT22;43113;53.124;6.092;2022-12-18T09:09:58;-3.50;99.90
57264;DHT22;43113;53.124;6.092;2022-12-18T09:12:24;-3.40;99.90
57264;DHT22;43113;53.124;6.092;2022-12-18T09:14:50;-3.40;99.90
57264;DHT22;43113;53.124;6.092;2022-12-18T09:17:16;-2.90;99.90
57264;DHT22;43113;53.124;6.092;2022-12-18T09:19:42;-3.20;99.90
57264;DHT22;43113;53.124;6.092;2022-12-18T09:22:07;-3.20;99.90
57264;DHT22;43113;53.124;6.092;2022-12-18T09:24:33;-3.00;99.90
57264;DHT22;43113;53.124;6.092;2022-12-18T09:26:59;-2.90;99.90
57264;DHT22;43113;53.124;6.092;2022-12-18T09:29:24;-0.90;99.90
57264;DHT22;43113;53.124;6.092;2022-12-18T09:31:50;-0.40;99.90
57264;DHT22;43113;53.124;6.092;2022-12-18T09:34:16;-0.70;99.90
57264;DHT22;43113;53.124;6.092;2022-12-18T09:36:42;-2.50;99.90
57264;DHT22;43113;53.124;6.092;2022-12-18T09:39:08;-1.10;99.90
57264;DHT22;43113;53.124;6.092;2022-12-18T09:49:30;-2.10;99.90
57264;DHT22;43113;53.124;6.092;2022-12-18T09:52:19;-0.90;99.90
57264;DHT22;43113;53.124;6.092;2022-12-18T09:55:03;-1.90;99.90
57264;DHT22;43113;53.124;6.092;2022-12-18T09:57:33;-1.50;99.90
57264;DHT22;43113;53.124;6.092;2022-12-18T10:00:15;-0.10;99.90
57264;DHT22;43113;53.124;6.092;2022-12-18T10:02:41;-1.10;99.90
57264;DHT22;43113;53.124;6.092;2022-12-18T10:05:17;-1.20;99.90
57264;DHT22;43113;53.124;6.092;2022-12-18T10:07:55;-1.60;99.90
57264;DHT22;43113;53.124;6.092;2022-12-18T10:10:40;-1.40;99.90
57264;DHT22;43113;53.124;6.092;2022-12-18T10:24:37;-2.00;99.90
57264;DHT22;43113;53.124;6.092;2022-12-18T10:27:15;-2.10;99.90
57264;DHT22;43113;53.124;6.092;2022-12-18T10:29:42;-2.00;99.90
57264;DHT22;43113;53.124;6.092;2022-12-18T10:32:15;-0.60;99.90
57264;DHT22;43113;53.124;6.092;2022-12-18T10:34:45;-2.30;99.90
57264;DHT22;43113;53.124;6.092;2022-12-18T10:37:19;-2.30;99.90
57264;DHT22;43113;53.124;6.092;2022-12-18T10:39:46;-2.30;99.90
57264;DHT22;43113;53.124;6.092;2022-12-18T10:42:19;-0.60;99.90
57264;DHT22;43113;53.124;6.092;2022-12-18T10:44:45;-0.90;99.90
57264;DHT22;43113;53.124;6.092;2022-12-18T10:47:14;-2.40;99.90
57264;DHT22;43113;53.124;6.092;2022-12-18T10:49:50;-2.40;99.90
57264;DHT22;43113;53.124;6.092;2022-12-18T10:52:22;-2.30;99.90
57264;DHT22;43113;53.124;6.092;2022-12-18T10:54:59;-2.30;99.90
57264;DHT22;43113;53.124;6.092;2022-12-18T10:57:38;-1.40;99.90
57264;DHT22;43113;53.124;6.092;2022-12-18T11:00:26;-2.30;99.90
57264;DHT22;43113;53.124;6.092;2022-12-18T11:02:53;-2.30;99.90
57264;DHT22;43113;53.124;6.092;2022-12-18T11:05:26;-2.30;99.90
57264;DHT22;43113;53.124;6.092;2022-12-18T11:07:52;-0.90;99.90
57264;DHT22;43113;53.124;6.092;2022-12-18T11:10:22;-2.40;99.90
57264;DHT22;43113;53.124;6.092;2022-12-18T11:12:48;-2.60;99.90
57264;DHT22;43113;53.124;6.092;2022-12-18T11:15:21;-2.30;99.90
57264;DHT22;43113;53.124;6.092;2022-12-18T11:17:50;-2.30;99.90
57264;DHT22;43113;53.124;6.092;2022-12-18T11:20:27;-1.80;99.90
57264;DHT22;43113;53.124;6.092;2022-12-18T11:22:58;-2.30;99.90
57264;DHT22;43113;53.124;6.092;2022-12-18T11:25:26;-2.20;99.90
57264;DHT22;43113;53.124;6.092;2022-12-18T11:28:03;-2.20;99.90
57264;DHT22;43113;53.124;6.092;2022-12-18T11:30:30;-2.10;99.90
57264;DHT22;43113;53.124;6.092;2022-12-18T11:33:11;-2.00;99.90
57264;DHT22;43113;53.124;6.092;2022-12-18T11:35:53;-1.20;99.90
57264;DHT22;43113;53.124;6.092;2022-12-18T11:38:26;-2.30;99.90
57264;DHT22;43113;53.124;6.092;2022-12-18T11:43:36;-2.00;99.90
57264;DHT22;43113;53.124;6.092;2022-12-18T11:46:23;-2.00;99.90
57264;DHT22;43113;53.124;6.092;2022-12-18T11:49:28;-2.00;99.90
57264;DHT22;43113;53.124;6.092;2022-12-18T11:52:21;-1.80;99.90
57264;DHT22;43113;53.124;6.092;2022-12-18T11:54:52;-1.90;99.90
57264;DHT22;43113;53.124;6.092;2022-12-18T12:00:22;-1.80;99.90
57264;DHT22;43113;53.124;6.092;2022-12-18T12:03:11;-2.40;99.90
57264;DHT22;43113;53.124;6.092;2022-12-18T12:14:22;-2.40;99.90
57264;DHT22;43113;53.124;6.092;2022-12-18T12:17:02;-1.70;99.90
57264;DHT22;43113;53.124;6.092;2022-12-18T12:19:46;-1.70;99.90
57264;DHT22;43113;53.124;6.092;2022-12-18T12:22:46;-1.70;99.90
57264;DHT22;43113;53.124;6.092;2022-12-18T12:30:57;-1.60;99.90
57264;DHT22;43113;53.124;6.092;2022-12-18T12:36:16;-1.50;99.90
57264;DHT22;43113;53.124;6.092;2022-12-18T12:38:49;-1.40;99.90
57264;DHT22;43113;53.124;6.092;2022-12-18T12:41:21;-1.40;99.90
57264;DHT22;43113;53.124;6.092;2022-12-18T12:44:09;-1.30;99.90
57264;DHT22;43113;53.124;6.092;2022-12-18T12:46:41;-0.40;99.90
57264;DHT22;43113;53.124;6.092;2022-12-18T12:49:19;-0.20;99.90
57264;DHT22;43113;53.124;6.092;2022-12-18T12:51:52;-1.20;99.90
57264;DHT22;43113;53.124;6.092;2022-12-18T12:54:23;-1.30;99.90
57264;DHT22;43113;53.124;6.092;2022-12-18T12:57:14;-1.20;99.90
57264;DHT22;43113;53.124;6.092;2022-12-18T12:59:52;-1.20;99.90
57264;DHT22;43113;53.124;6.092;2022-12-18T13:05:02;-1.20;99.90
57264;DHT22;43113;53.124;6.092;2022-12-18T13:07:40;-1.20;99.90
57264;DHT22;43113;53.124;6.092;2022-12-18T13:10:24;-1.10;99.90
57264;DHT22;43113;53.124;6.092;2022-12-18T13:13:10;-1.10;99.90
57264;DHT22;43113;53.124;6.092;2022-12-18T13:15:47;-1.10;99.90
57264;DHT22;43113;53.124;6.092;2022-12-18T13:18:21;-1.10;99.90
57264;DHT22;43113;53.124;6.092;2022-12-18T13:34:19;0.90;99.90
57264;DHT22;43113;53.124;6.092;2022-12-18T13:36:46;1.20;99.90
57264;DHT22;43113;53.124;6.092;2022-12-18T13:41:45;-1.10;99.90
57264;DHT22;43113;53.124;6.092;2022-12-18T13:44:36;-1.10;99.90
57264;DHT22;43113;53.124;6.092;2022-12-18T13:47:04;-1.00;99.90
57264;DHT22;43113;53.124;6.092;2022-12-18T13:49:41;-1.00;99.90
57264;DHT22;43113;53.124;6.092;2022-12-18T13:52:54;0.30;99.90
57264;DHT22;43113;53.124;6.092;2022-12-18T13:55:18;-1.10;99.90
57264;DHT22;43113;53.124;6.092;2022-12-18T13:57:44;-1.10;99.90
57264;DHT22;43113;53.124;6.092;2022-12-18T14:07:55;-1.10;99.90
57264;DHT22;43113;53.124;6.092;2022-12-18T14:10:26;-1.10;99.90
57264;DHT22;43113;53.124;6.092;2022-12-18T14:12:51;0.20;99.90
57264;DHT22;43113;53.124;6.092;2022-12-18T14:15:32;-1.20;99.90
57264;DHT22;43113;53.124;6.092;2022-12-18T14:18:21;-0.20;99.90
57264;DHT22;43113;53.124;6.092;2022-12-18T14:20:53;-1.10;99.90
57264;DHT22;43113;53.124;6.092;2022-12-18T14:23:35;0.10;99.90
57264;DHT22;43113;53.124;6.092;2022-12-18T14:26:17;-1.10;99.90
57264;DHT22;43113;53.124;6.092;2022-12-18T14:28:44;0.20;99.90
57264;DHT22;43113;53.124;6.092;2022-12-18T14:31:18;-1.10;99.90
57264;DHT22;43113;53.124;6.092;2022-12-18T14:33:44;-1.20;99.90
57264;DHT22;43113;53.124;6.092;2022-12-18T14:36:17;-1.20;99.90
57264;DHT22;43113;53.124;6.092;2022-12-18T14:38:48;0.70;99.90
57264;DHT22;43113;53.124;6.092;2022-12-18T14:41:16;-1.20;99.90
57264;DHT22;43113;53.124;6.092;2022-12-18T14:43:45;-1.30;99.90
57264;DHT22;43113;53.124;6.092;2022-12-18T14:46:31;-0.90;99.90
57264;DHT22;43113;53.124;6.092;2022-12-18T14:49:17;-1.30;99.90
57264;DHT22;43113;53.124;6.092;2022-12-18T14:51:57;-1.30;99.90
57264;DHT22;43113;53.124;6.092;2022-12-18T14:54:24;-0.70;99.90
57264;DHT22;43113;53.124;6.092;2022-12-18T14:57:02;-1.10;99.90
57264;DHT22;43113;53.124;6.092;2022-12-18T14:59:29;-1.40;99.90
57264;DHT22;43113;53.124;6.092;2022-12-18T15:02:18;0.80;99.90
57264;DHT22;43113;53.124;6.092;2022-12-18T15:07:22;-1.40;99.90
57264;DHT22;43113;53.124;6.092;2022-12-18T15:12:35;-1.40;99.90
57264;DHT22;43113;53.124;6.092;2022-12-18T15:15:02;-1.60;99.90
57264;DHT22;43113;53.124;6.092;2022-12-18T15:17:28;-1.40;99.90
57264;DHT22;43113;53.124;6.092;2022-12-18T15:20:01;0.10;99.90
57264;DHT22;43113;53.124;6.092;2022-12-18T15:22:29;-1.30;99.90
57264;DHT22;43113;53.124;6.092;2022-12-18T15:24:56;-1.30;99.90
57264;DHT22;43113;53.124;6.092;2022-12-18T15:32:36;-0.70;99.90
57264;DHT22;43113;53.124;6.092;2022-12-18T15:37:40;-1.00;99.90
57264;DHT22;43113;53.124;6.092;2022-12-18T15:40:11;-1.40;99.90
57264;DHT22;43113;53.124;6.092;2022-12-18T15:42:37;-1.40;99.90
57264;DHT22;43113;53.124;6.092;2022-12-18T15:45:22;-1.30;99.90
57264;DHT22;43113;53.124;6.092;2022-12-18T15:47:48;-1.40;99.90
57264;DHT22;43113;53.124;6.092;2022-12-18T15:50:13;-1.40;99.90
57264;DHT22;43113;53.124;6.092;2022-12-18T15:52:42;-1.60;99.90
57264;DHT22;43113;53.124;6.092;2022-12-18T15:55:13;-2.20;99.90
57264;DHT22;43113;53.124;6.092;2022-12-18T15:57:58;-1.40;99.90
57264;DHT22;43113;53.124;6.092;2022-12-18T16:00:23;-1.40;99.90
57264;DHT22;43113;53.124;6.092;2022-12-18T16:02:49;-1.40;99.90
57264;DHT22;43113;53.124;6.092;2022-12-18T16:05:16;-1.40;99.90
57264;DHT22;43113;53.124;6.092;2022-12-18T16:10:09;-0.50;99.90
57264;DHT22;43113;53.124;6.092;2022-12-18T16:12:35;-1.20;99.90
57264;DHT22;43113;53.124;6.092;2022-12-18T16:15:01;-1.40;99.90
57264;DHT22;43113;53.124;6.092;2022-12-18T16:17:27;-1.40;99.90
57264;DHT22;43113;53.124;6.092;2022-12-18T16:19:53;-1.40;99.90
57264;DHT22;43113;53.124;6.092;2022-12-18T16:22:29;-1.40;99.90
57264;DHT22;43113;53.124;6.092;2022-12-18T16:24:55;0.40;99.90
57264;DHT22;43113;53.124;6.092;2022-12-18T16:27:22;-1.60;99.90
57264;DHT22;43113;53.124;6.092;2022-12-18T16:29:51;0.30;99.90
57264;DHT22;43113;53.124;6.092;2022-12-18T16:32:21;-1.40;99.90
57264;DHT22;43113;53.124;6.092;2022-12-18T16:34:47;-1.40;99.90
57264;DHT22;43113;53.124;6.092;2022-12-18T16:37:15;-1.40;99.90
57264;DHT22;43113;53.124;6.092;2022-12-18T16:39:42;1.10;99.90
57264;DHT22;43113;53.124;6.092;2022-12-18T16:42:14;-1.40;99.90
57264;DHT22;43113;53.124;6.092;2022-12-18T16:44:41;-1.40;99.90
57264;DHT22;43113;53.124;6.092;2022-12-18T16:47:08;0.70;99.90
57264;DHT22;43113;53.124;6.092;2022-12-18T16:49:34;-1.30;99.90
57264;DHT22;43113;53.124;6.092;2022-12-18T16:51:59;-0.50;99.90
57264;DHT22;43113;53.124;6.092;2022-12-18T16:54:25;1.60;99.90
57264;DHT22;43113;53.124;6.092;2022-12-18T16:56:51;-1.40;99.90
57264;DHT22;43113;53.124;6.092;2022-12-18T16:59:18;-0.30;99.90
57264;DHT22;43113;53.124;6.092;2022-12-18T17:01:44;-1.30;99.90
57264;DHT22;43113;53.124;6.092;2022-12-18T17:04:09;-1.30;99.90
57264;DHT22;43113;53.124;6.092;2022-12-18T17:06:39;-1.30;99.90
57264;DHT22;43113;53.124;6.092;2022-12-18T17:09:08;-1.30;99.90
57264;DHT22;43113;53.124;6.092;2022-12-18T17:11:35;-1.30;99.90
57264;DHT22;43113;53.124;6.092;2022-12-18T17:14:09;-1.30;99.90
57264;DHT22;43113;53.124;6.092;2022-12-18T17:16:35;-1.30;99.90
57264;DHT22;43113;53.124;6.092;2022-12-18T17:21:26;-1.30;99.90
57264;DHT22;43113;53.124;6.092;2022-12-18T17:23:53;-1.40;99.90
57264;DHT22;43113;53.124;6.092;2022-12-18T17:26:19;-1.30;99.90
57264;DHT22;43113;53.124;6.092;2022-12-18T17:28:44;-1.30;99.90
57264;DHT22;43113;53.124;6.092;2022-12-18T17:31:12;-0.10;99.90
57264;DHT22;43113;53.124;6.092;2022-12-18T17:33:41;-1.80;99.90
57264;DHT22;43113;53.124;6.092;2022-12-18T17:36:08;-1.30;99.90
57264;DHT22;43113;53.124;6.092;2022-12-18T17:38:34;-1.30;99.90
57264;DHT22;43113;53.124;6.092;2022-12-18T17:41:04;-1.20;99.90
57264;DHT22;43113;53.124;6.092;2022-12-18T17:43:30;-1.20;99.90
57264;DHT22;43113;53.124;6.092;2022-12-18T17:46:01;-1.30;99.90
57264;DHT22;43113;53.124;6.092;2022-12-18T17:48:28;-1.10;99.90
57264;DHT22;43113;53.124;6.092;2022-12-18T17:50:54;-1.20;99.90
57264;DHT22;43113;53.124;6.092;2022-12-18T17:53:19;-1.20;99.90
57264;DHT22;43113;53.124;6.092;2022-12-18T17:55:55;-0.30;99.90
57264;DHT22;43113;53.124;6.092;2022-12-18T17:58:22;-1.00;99.90
57264;DHT22;43113;53.124;6.092;2022-12-18T18:00:48;0.20;99.90
57264;DHT22;43113;53.124;6.092;2022-12-18T18:03:14;-1.00;99.90
57264;DHT22;43113;53.124;6.092;2022-12-18T18:05:39;-1.00;99.90
57264;DHT22;43113;53.124;6.092;2022-12-18T18:08:05;-1.00;99.90
57264;DHT22;43113;53.124;6.092;2022-12-18T18:10:31;0.40;99.90
57264;DHT22;43113;53.124;6.092;2022-12-18T18:12:58;-1.00;99.90
57264;DHT22;43113;53.124;6.092;2022-12-18T18:15:42;-1.00;99.90
57264;DHT22;43113;53.124;6.092;2022-12-18T18:18:07;-0.50;99.90
57264;DHT22;43113;53.124;6.092;2022-12-18T18:20:38;-0.90;99.90
57264;DHT22;43113;53.124;6.092;2022-12-18T18:23:04;-0.90;99.90
57264;DHT22;43113;53.124;6.092;2022-12-18T18:25:30;-2.40;99.90